createdAt,value
2018-06-23T00:00:17.982Z,6.0
2018-06-23T00:01:19.639Z,6.0
2018-06-23T00:02:21.300Z,6.0
2018-06-23T00:03:22.936Z,5.8
2018-06-23T00:04:24.588Z,5.7
2018-06-23T00:05:26.262Z,5.7
2018-06-23T00:06:27.913Z,6.0
2018-06-23T00:07:29.566Z,5.6
2018-06-23T00:08:31.232Z,5.4
2018-06-23T00:09:32.878Z,5.7
2018-06-23T00:10:34.520Z,6.1
2018-06-23T00:11:36.175Z,5.6
2018-06-23T00:12:37.831Z,5.8
2018-06-23T00:13:39.486Z,5.5
2018-06-23T00:14:41.141Z,5.7
2018-06-23T00:15:42.787Z,5.6
2018-06-23T00:16:44.437Z,5.5
2018-06-23T00:17:46.097Z,5.9
2018-06-23T00:18:47.745Z,5.9
2018-06-23T00:19:49.424Z,6.5
2018-06-23T00:20:51.082Z,6.0
2018-06-23T00:21:52.734Z,5.9
2018-06-23T00:22:54.393Z,5.0
2018-06-23T00:23:56.049Z,5.6
2018-06-23T00:24:57.699Z,5.2
2018-06-23T00:25:59.354Z,5.1
2018-06-23T00:27:01.003Z,5.8
2018-06-23T00:28:02.687Z,5.6
2018-06-23T00:29:04.362Z,5.2
2018-06-23T00:30:06.008Z,5.0
2018-06-23T00:31:07.661Z,5.2
2018-06-23T00:32:09.325Z,5.5
2018-06-23T00:33:11.531Z,5.7
2018-06-23T00:34:13.950Z,5.0
2018-06-23T00:35:15.609Z,5.2
2018-06-23T00:36:17.257Z,4.8
2018-06-23T00:37:18.914Z,5.1
2018-06-23T00:38:20.558Z,5.2
2018-06-23T00:39:22.215Z,5.0
2018-06-23T00:40:23.866Z,5.7
2018-06-23T00:41:25.516Z,4.3
2018-06-23T00:42:27.174Z,5.9
2018-06-23T00:43:28.818Z,5.3
2018-06-23T00:44:30.470Z,5.1
2018-06-23T00:45:32.127Z,4.6
2018-06-23T00:46:33.776Z,5.1
2018-06-23T00:47:35.430Z,5.3
2018-06-23T00:48:37.073Z,4.9
2018-06-23T00:49:38.740Z,4.4
2018-06-23T00:50:40.400Z,4.6
2018-06-23T00:51:42.047Z,4.3
2018-06-23T00:52:43.701Z,5.2
2018-06-23T00:53:45.360Z,4.4
2018-06-23T00:54:47.014Z,5.3
2018-06-23T00:55:48.654Z,4.9
2018-06-23T00:56:50.314Z,4.9
2018-06-23T00:57:51.962Z,5.2
2018-06-23T00:58:53.606Z,4.5
2018-06-23T00:59:55.251Z,4.9
2018-06-23T01:00:56.910Z,5.2
2018-06-23T01:01:58.560Z,4.7
2018-06-23T01:03:00.217Z,4.6
2018-06-23T01:04:01.867Z,5.2
2018-06-23T01:05:03.516Z,4.9
2018-06-23T01:06:05.171Z,4.6
2018-06-23T01:07:06.837Z,4.5
2018-06-23T01:08:08.484Z,5.0
2018-06-23T01:09:10.132Z,5.1
2018-06-23T01:10:11.778Z,5.0
2018-06-23T01:11:13.430Z,4.9
2018-06-23T01:12:15.079Z,4.9
2018-06-23T01:13:16.733Z,4.9
2018-06-23T01:14:18.408Z,5.0
2018-06-23T01:15:20.055Z,4.8
2018-06-23T01:16:21.698Z,4.6
2018-06-23T01:17:23.355Z,4.7
2018-06-23T01:18:25.002Z,4.3
2018-06-23T01:19:26.653Z,4.5
2018-06-23T01:20:28.309Z,5.0
2018-06-23T01:21:29.968Z,4.9
2018-06-23T01:22:31.627Z,4.7
2018-06-23T01:23:33.281Z,5.0
2018-06-23T01:24:34.931Z,4.8
2018-06-23T01:25:36.581Z,3.9
2018-06-23T01:26:38.245Z,4.5
2018-06-23T01:27:39.895Z,4.9
2018-06-23T01:28:41.553Z,4.7
2018-06-23T01:29:43.205Z,4.5
2018-06-23T01:30:44.855Z,5.0
2018-06-23T01:31:46.513Z,4.6
2018-06-23T01:32:48.161Z,5.4
2018-06-23T01:33:49.814Z,4.5
2018-06-23T01:34:51.466Z,4.7
2018-06-23T01:35:53.122Z,5.2
2018-06-23T01:36:54.767Z,5.0
2018-06-23T01:37:56.421Z,4.5
2018-06-23T01:38:58.076Z,5.1
2018-06-23T01:39:59.734Z,4.7
2018-06-23T01:41:01.390Z,5.0
2018-06-23T01:42:03.081Z,4.5
2018-06-23T01:43:04.740Z,5.0
2018-06-23T01:44:06.404Z,5.1
2018-06-23T01:45:08.055Z,5.1
2018-06-23T01:46:09.706Z,4.9
2018-06-23T01:47:11.351Z,5.0
2018-06-23T01:48:13.001Z,4.9
2018-06-23T01:49:14.662Z,5.3
2018-06-23T01:50:16.312Z,4.8
2018-06-23T01:51:17.964Z,4.7
2018-06-23T01:52:19.624Z,4.6
2018-06-23T01:53:21.277Z,4.7
2018-06-23T01:54:22.934Z,5.5
2018-06-23T01:55:24.584Z,5.3
2018-06-23T02:01:15.493Z,3.7
2018-06-23T02:02:17.137Z,5.0
2018-06-23T02:04:09.033Z,5.3
2018-06-23T02:05:10.686Z,5.0
2018-06-23T02:07:02.650Z,4.9
2018-06-23T02:08:04.301Z,5.5
2018-06-23T02:09:56.206Z,4.5
2018-06-23T02:10:57.861Z,5.1
2018-06-23T02:12:49.760Z,5.4
2018-06-23T02:13:51.408Z,5.5
2018-06-23T02:15:43.338Z,5.6
2018-06-23T02:16:44.988Z,4.7
2018-06-23T02:18:36.892Z,4.9
2018-06-23T02:19:38.549Z,4.9
2018-06-23T02:21:30.485Z,5.2
2018-06-23T02:22:32.141Z,5.6
2018-06-23T02:23:33.791Z,5.8
2018-06-23T02:24:35.436Z,6.2
2018-06-23T02:25:37.091Z,5.0
2018-06-23T02:26:38.745Z,4.9
2018-06-23T02:27:40.398Z,6.2
2018-06-23T02:28:42.061Z,5.2
2018-06-23T02:29:43.715Z,5.0
2018-06-23T02:30:45.357Z,5.4
2018-06-23T02:31:47.006Z,5.9
2018-06-23T02:32:48.664Z,5.4
2018-06-23T02:33:50.329Z,5.0
2018-06-23T02:34:51.978Z,5.2
2018-06-23T02:35:53.629Z,5.9
2018-06-23T02:36:55.287Z,5.8
2018-06-23T02:37:56.941Z,5.1
2018-06-23T02:38:58.590Z,5.8
2018-06-23T02:40:00.246Z,5.7
2018-06-23T02:41:01.899Z,5.8
2018-06-23T02:42:03.552Z,5.5
2018-06-23T02:43:05.208Z,5.5
2018-06-23T02:44:06.860Z,6.6
2018-06-23T02:45:08.518Z,6.2
2018-06-23T02:46:10.169Z,5.4
2018-06-23T02:47:11.833Z,6.4
2018-06-23T02:48:13.482Z,6.1
2018-06-23T02:49:15.138Z,6.6
2018-06-23T02:50:16.799Z,5.8
2018-06-23T02:51:18.450Z,6.5
2018-06-23T02:52:20.097Z,5.7
2018-06-23T02:53:21.753Z,6.5
2018-06-23T02:54:23.429Z,6.1
2018-06-23T02:55:25.074Z,6.0
2018-06-23T02:56:26.727Z,6.3
2018-06-23T02:57:28.382Z,6.3
2018-06-23T02:58:30.034Z,6.1
2018-06-23T02:59:31.700Z,6.9
2018-06-23T03:00:33.357Z,6.7
2018-06-23T03:01:35.011Z,5.6
2018-06-23T03:02:36.665Z,6.6
2018-06-23T03:03:38.321Z,6.2
2018-06-23T03:04:39.979Z,6.0
2018-06-23T03:05:41.631Z,5.9
2018-06-23T03:06:43.287Z,5.7
2018-06-23T03:07:44.939Z,6.7
2018-06-23T03:08:46.595Z,6.6
2018-06-23T03:09:48.254Z,6.4
2018-06-23T03:10:49.910Z,6.4
2018-06-23T03:11:51.570Z,6.3
2018-06-23T03:12:53.232Z,6.2
2018-06-23T03:13:54.890Z,5.6
2018-06-23T03:14:56.538Z,6.3
2018-06-23T03:15:58.198Z,5.4
2018-06-23T03:16:59.860Z,5.5
2018-06-23T03:18:01.523Z,5.8
2018-06-23T03:19:03.176Z,6.2
2018-06-23T03:20:04.831Z,6.0
2018-06-23T03:21:06.488Z,5.7
2018-06-23T03:22:08.145Z,5.7
2018-06-23T03:23:09.807Z,5.7
2018-06-23T03:24:11.466Z,5.8
2018-06-23T03:25:13.121Z,6.1
2018-06-23T03:26:14.787Z,6.0
2018-06-23T03:27:16.443Z,5.8
2018-06-23T03:28:18.090Z,6.0
2018-06-23T03:29:19.758Z,5.3
2018-06-23T03:30:21.427Z,5.4
2018-06-23T03:31:23.079Z,6.3
2018-06-23T03:32:24.730Z,5.7
2018-06-23T03:33:26.400Z,5.5
2018-06-23T03:34:28.061Z,5.2
2018-06-23T03:35:29.712Z,4.9
2018-06-23T03:36:31.375Z,5.4
2018-06-23T03:37:33.031Z,5.3
2018-06-23T03:38:34.693Z,6.0
2018-06-23T03:39:36.345Z,5.7
2018-06-23T03:40:38.007Z,5.9
2018-06-23T03:41:39.661Z,5.6
2018-06-23T03:42:41.313Z,5.8
2018-06-23T03:43:42.967Z,6.0
2018-06-23T03:44:44.620Z,5.8
2018-06-23T03:45:46.279Z,5.2
2018-06-23T03:46:47.927Z,5.6
2018-06-23T03:47:49.589Z,5.6
2018-06-23T03:48:51.241Z,6.0
2018-06-23T03:49:52.896Z,4.8
2018-06-23T03:50:54.552Z,6.1
2018-06-23T03:51:56.211Z,5.5
2018-06-23T03:52:57.869Z,5.3
2018-06-23T03:53:59.522Z,6.0
2018-06-23T03:55:01.182Z,5.6
2018-06-23T03:56:02.889Z,6.0
2018-06-23T03:57:04.545Z,5.9
2018-06-23T03:58:06.207Z,6.4
2018-06-23T03:59:07.867Z,5.7
2018-06-23T04:00:09.526Z,6.0
2018-06-23T04:01:11.184Z,5.9
2018-06-23T04:02:12.836Z,5.1
2018-06-23T04:03:14.502Z,5.7
2018-06-23T04:04:16.157Z,5.9
2018-06-23T04:05:17.808Z,6.1
2018-06-23T04:06:19.472Z,5.3
2018-06-23T04:07:21.131Z,5.8
2018-06-23T04:08:22.790Z,5.9
2018-06-23T04:09:24.455Z,5.8
2018-06-23T04:10:26.116Z,5.8
2018-06-23T04:11:27.815Z,5.3
2018-06-23T04:12:29.428Z,5.2
2018-06-23T04:13:31.084Z,5.3
2018-06-23T04:14:32.743Z,5.6
2018-06-23T04:15:34.405Z,5.9
2018-06-23T04:16:36.056Z,5.8
2018-06-23T04:17:37.711Z,6.0
2018-06-23T04:18:39.390Z,5.3
2018-06-23T04:19:41.052Z,6.2
2018-06-23T04:20:42.706Z,5.9
2018-06-23T04:21:44.362Z,5.7
2018-06-23T04:22:46.019Z,6.1
2018-06-23T04:23:47.679Z,5.6
2018-06-23T04:24:49.356Z,5.7
2018-06-23T04:25:51.014Z,5.6
2018-06-23T04:26:52.673Z,6.8
2018-06-23T04:27:54.338Z,5.7
2018-06-23T04:28:56.003Z,5.9
2018-06-23T04:29:57.649Z,5.7
2018-06-23T04:30:59.312Z,5.9
2018-06-23T04:32:00.968Z,5.8
2018-06-23T04:33:02.658Z,5.5
2018-06-23T04:34:04.313Z,5.7
2018-06-23T04:35:05.982Z,5.2
2018-06-23T04:36:07.644Z,5.9
2018-06-23T04:37:09.314Z,5.1
2018-06-23T04:38:11.065Z,5.5
2018-06-23T04:39:12.724Z,5.3
2018-06-23T04:40:14.388Z,5.0
2018-06-23T04:41:16.068Z,5.0
2018-06-23T04:42:17.728Z,5.3
2018-06-23T04:43:19.387Z,4.7
2018-06-23T04:44:21.043Z,5.2
2018-06-23T04:45:22.706Z,5.4
2018-06-23T04:46:24.370Z,4.8
2018-06-23T04:47:26.024Z,5.4
2018-06-23T04:48:27.789Z,5.8
2018-06-23T04:49:29.353Z,5.4
2018-06-23T04:50:31.009Z,5.1
2018-06-23T04:51:32.684Z,5.2
2018-06-23T04:52:34.343Z,5.8
2018-06-23T04:53:36.002Z,5.4
2018-06-23T04:54:37.667Z,5.4
2018-06-23T04:55:39.337Z,4.9
2018-06-23T04:56:40.997Z,5.4
2018-06-23T04:57:42.651Z,5.0
2018-06-23T04:58:44.319Z,5.2
2018-06-23T04:59:45.978Z,5.2
2018-06-23T05:00:47.666Z,4.9
2018-06-23T05:01:49.328Z,5.2
2018-06-23T05:02:50.989Z,4.5
2018-06-23T05:03:52.666Z,5.0
2018-06-23T05:04:54.335Z,5.0
2018-06-23T05:05:55.996Z,4.5
2018-06-23T05:06:57.661Z,5.5
2018-06-23T05:07:59.323Z,4.3
2018-06-23T05:09:00.986Z,4.8
2018-06-23T05:10:02.724Z,4.6
2018-06-23T05:11:04.317Z,5.5
2018-06-23T05:12:05.975Z,5.2
2018-06-23T05:13:07.664Z,4.8
2018-06-23T05:14:09.326Z,4.7
2018-06-23T05:15:10.993Z,5.4
2018-06-23T05:16:12.664Z,5.2
2018-06-23T05:17:14.322Z,5.1
2018-06-23T05:18:15.993Z,5.1
2018-06-23T05:19:17.642Z,4.9
2018-06-23T05:20:19.330Z,5.3
2018-06-23T05:21:20.967Z,5.3
2018-06-23T05:22:22.626Z,5.2
2018-06-23T05:23:24.287Z,4.6
2018-06-23T05:24:25.952Z,5.1
2018-06-23T05:25:27.632Z,5.2
2018-06-23T05:26:29.295Z,5.3
2018-06-23T05:27:30.961Z,4.7
2018-06-23T05:28:32.625Z,5.2
2018-06-23T05:29:34.284Z,5.1
2018-06-23T05:30:35.940Z,4.9
2018-06-23T05:31:37.602Z,4.9
2018-06-23T05:32:39.268Z,5.0
2018-06-23T05:33:40.937Z,4.9
2018-06-23T05:34:42.606Z,4.7
2018-06-23T05:35:44.270Z,5.8
2018-06-23T05:36:45.940Z,4.7
2018-06-23T05:37:47.612Z,5.5
2018-06-23T05:38:49.267Z,5.1
2018-06-23T05:39:50.931Z,4.5
2018-06-23T05:40:52.595Z,4.7
2018-06-23T05:41:54.270Z,6.1
2018-06-23T05:42:55.937Z,5.1
2018-06-23T05:43:57.597Z,5.4
2018-06-23T05:44:59.253Z,5.0
2018-06-23T05:46:00.917Z,5.4
2018-06-23T05:47:02.613Z,5.8
2018-06-23T05:48:04.276Z,5.5
2018-06-23T05:49:05.936Z,5.1
2018-06-23T05:50:07.605Z,5.1
2018-06-23T05:51:09.275Z,4.5
2018-06-23T05:52:10.960Z,5.0
2018-06-23T05:53:12.609Z,5.2
2018-06-23T05:54:14.266Z,4.8
2018-06-23T05:55:15.931Z,5.5
2018-06-23T06:02:04.865Z,4.4
2018-06-23T06:03:06.531Z,5.0
2018-06-23T06:04:58.419Z,5.1
2018-06-23T06:06:00.076Z,5.1
2018-06-23T06:07:01.765Z,5.0
2018-06-23T06:08:03.388Z,5.0
2018-06-23T06:09:05.045Z,5.2
2018-06-23T06:10:06.705Z,5.5
2018-06-23T06:11:08.362Z,5.0
2018-06-23T06:12:10.031Z,5.0
2018-06-23T06:13:11.690Z,5.1
2018-06-23T06:14:13.342Z,5.1
2018-06-23T06:15:14.998Z,4.8
2018-06-23T06:16:16.658Z,5.5
2018-06-23T06:17:18.325Z,5.4
2018-06-23T06:18:20.029Z,5.4
2018-06-23T06:19:21.684Z,5.7
2018-06-23T06:20:23.374Z,5.2
2018-06-23T06:21:25.032Z,4.8
2018-06-23T06:22:26.703Z,5.7
2018-06-23T06:23:28.362Z,5.0
2018-06-23T06:24:30.708Z,4.5
2018-06-23T06:25:32.373Z,5.8
2018-06-23T06:26:34.036Z,5.0
2018-06-23T06:27:35.694Z,4.9
2018-06-23T06:28:37.355Z,5.8
2018-06-23T06:29:39.016Z,5.0
2018-06-23T06:30:40.683Z,5.2
2018-06-23T06:31:42.356Z,5.7
2018-06-23T06:32:44.014Z,5.3
2018-06-23T06:33:45.670Z,5.0
2018-06-23T06:34:47.333Z,4.8
2018-06-23T06:35:48.989Z,5.7
2018-06-23T06:36:50.659Z,4.7
2018-06-23T06:37:52.326Z,5.2
2018-06-23T06:38:53.983Z,4.9
2018-06-23T06:39:55.665Z,5.1
2018-06-23T06:40:57.338Z,5.1
2018-06-23T06:41:58.998Z,5.5
2018-06-23T06:43:00.657Z,5.2
2018-06-23T06:44:02.336Z,5.2
2018-06-23T06:45:03.995Z,5.3
2018-06-23T06:46:05.652Z,5.1
2018-06-23T06:47:07.404Z,5.9
2018-06-23T06:48:09.068Z,5.1
2018-06-23T06:49:10.732Z,5.0
2018-06-23T06:50:12.470Z,5.1
2018-06-23T06:51:14.140Z,5.9
2018-06-23T06:52:15.802Z,5.5
2018-06-23T06:53:17.457Z,5.1
2018-06-23T06:54:19.123Z,5.9
2018-06-23T06:55:20.782Z,5.5
2018-06-23T06:56:22.441Z,4.9
2018-06-23T06:57:24.094Z,5.7
2018-06-23T06:58:26.576Z,5.3
2018-06-23T06:59:28.227Z,5.2
2018-06-23T07:00:29.912Z,5.2
2018-06-23T07:01:31.593Z,6.5
2018-06-23T07:02:33.260Z,6.1
2018-06-23T07:03:34.991Z,5.4
2018-06-23T07:04:36.561Z,5.4
2018-06-23T07:05:38.237Z,5.9
2018-06-23T07:06:39.896Z,6.2
2018-06-23T07:07:41.552Z,6.0
2018-06-23T07:08:43.217Z,6.5
2018-06-23T07:09:44.885Z,6.4
2018-06-23T07:10:46.546Z,6.4
2018-06-23T07:11:48.208Z,5.5
2018-06-23T07:12:49.878Z,6.1
2018-06-23T07:13:51.531Z,6.3
2018-06-23T07:14:53.198Z,5.7
2018-06-23T07:15:54.856Z,5.8
2018-06-23T07:16:56.512Z,6.1
2018-06-23T07:17:58.175Z,5.6
2018-06-23T07:18:59.844Z,6.5
2018-06-23T07:20:01.507Z,5.6
2018-06-23T07:21:03.169Z,5.8
2018-06-23T07:22:04.830Z,5.8
2018-06-23T07:23:06.501Z,6.5
2018-06-23T07:24:08.171Z,6.1
2018-06-23T07:25:09.832Z,6.5
2018-06-23T07:26:11.482Z,6.6
2018-06-23T07:27:13.140Z,6.5
2018-06-23T07:28:14.819Z,6.5
2018-06-23T07:29:16.461Z,6.2
2018-06-23T07:30:18.128Z,6.4
2018-06-23T07:31:19.793Z,6.2
2018-06-23T07:32:21.448Z,6.5
2018-06-23T07:33:23.118Z,6.0
2018-06-23T07:34:24.815Z,6.2
2018-06-23T07:35:26.448Z,5.5
2018-06-23T07:36:28.160Z,6.1
2018-06-23T07:37:29.847Z,5.6
2018-06-23T07:38:31.520Z,6.2
2018-06-23T07:39:33.160Z,6.6
2018-06-23T07:40:34.880Z,6.9
2018-06-23T07:41:36.488Z,6.6
2018-06-23T07:42:38.151Z,6.7
2018-06-23T07:43:39.815Z,7.0
2018-06-23T07:44:41.478Z,6.5
2018-06-23T07:45:43.142Z,6.7
2018-06-23T07:46:44.814Z,6.0
2018-06-23T07:47:46.475Z,7.0
2018-06-23T07:48:48.130Z,7.1
2018-06-23T07:49:49.787Z,6.8
2018-06-23T07:50:51.444Z,6.7
2018-06-23T07:51:53.115Z,7.2
2018-06-23T07:52:54.781Z,8.1
2018-06-23T07:53:56.452Z,7.1
2018-06-23T07:54:58.107Z,7.6
2018-06-23T07:55:59.773Z,7.5
2018-06-23T07:57:01.435Z,7.3
2018-06-23T07:58:03.101Z,7.1
2018-06-23T07:59:04.756Z,7.4
2018-06-23T08:00:06.470Z,7.7
2018-06-23T08:01:08.131Z,7.3
2018-06-23T08:02:09.923Z,7.0
2018-06-23T08:03:11.585Z,8.1
2018-06-23T08:04:13.276Z,6.6
2018-06-23T08:05:14.904Z,7.9
2018-06-23T08:06:16.562Z,7.4
2018-06-23T08:07:18.225Z,7.5
2018-06-23T08:08:19.890Z,7.9
2018-06-23T08:09:21.571Z,7.4
2018-06-23T08:10:23.232Z,7.6
2018-06-23T08:11:24.901Z,8.0
2018-06-23T08:12:26.555Z,7.6
2018-06-23T08:13:28.218Z,6.5
2018-06-23T08:14:29.885Z,6.5
2018-06-23T08:15:31.547Z,6.1
2018-06-23T08:16:34.167Z,7.3
2018-06-23T08:17:35.821Z,6.5
2018-06-23T08:18:37.504Z,7.1
2018-06-23T08:19:39.150Z,6.0
2018-06-23T08:20:40.813Z,6.7
2018-06-23T08:21:42.471Z,5.9
2018-06-23T08:22:44.120Z,6.2
2018-06-23T08:23:45.783Z,6.2
2018-06-23T08:24:47.453Z,6.9
2018-06-23T08:25:49.104Z,6.9
2018-06-23T08:26:50.767Z,6.0
2018-06-23T08:27:52.427Z,5.8
2018-06-23T08:28:54.102Z,5.6
2018-06-23T08:29:55.762Z,6.0
2018-06-23T08:30:57.426Z,6.2
2018-06-23T08:31:59.152Z,5.4
2018-06-23T08:33:00.968Z,5.7
2018-06-23T08:34:02.668Z,5.7
2018-06-23T08:35:04.332Z,5.5
2018-06-23T08:36:05.993Z,5.1
2018-06-23T08:37:07.653Z,5.6
2018-06-23T08:38:09.320Z,5.4
2018-06-23T08:39:10.970Z,5.3
2018-06-23T08:40:12.631Z,6.3
2018-06-23T08:41:14.286Z,6.4
2018-06-23T08:42:15.945Z,5.8
2018-06-23T08:43:17.604Z,6.5
2018-06-23T08:44:19.272Z,6.1
2018-06-23T08:45:20.923Z,6.0
2018-06-23T08:46:22.585Z,6.5
2018-06-23T08:47:24.261Z,6.4
2018-06-23T08:48:25.990Z,5.9
2018-06-23T08:49:27.552Z,5.7
2018-06-23T08:50:29.206Z,5.9
2018-06-23T08:51:30.867Z,6.4
2018-06-23T08:52:32.523Z,6.1
2018-06-23T08:53:34.200Z,6.3
2018-06-23T08:54:35.863Z,6.7
2018-06-23T08:55:37.531Z,6.7
2018-06-23T08:56:39.196Z,7.0
2018-06-23T08:57:40.853Z,6.6
2018-06-23T08:58:42.522Z,6.9
2018-06-23T08:59:44.196Z,8.1
2018-06-23T09:00:45.864Z,7.7
2018-06-23T09:01:47.583Z,6.9
2018-06-23T09:02:49.258Z,6.7
2018-06-23T09:03:50.869Z,7.8
2018-06-23T09:04:52.534Z,8.0
2018-06-23T09:05:54.219Z,7.7
2018-06-23T09:06:55.882Z,7.8
2018-06-23T09:07:57.540Z,8.1
2018-06-23T09:08:59.205Z,8.6
2018-06-23T09:10:00.867Z,9.2
2018-06-23T09:11:02.552Z,9.2
2018-06-23T09:12:04.226Z,9.2
2018-06-23T09:13:05.898Z,8.3
2018-06-23T09:14:07.568Z,8.7
2018-06-23T09:15:09.225Z,8.9
2018-06-23T09:16:10.897Z,8.4
2018-06-23T09:17:12.577Z,8.0
2018-06-23T09:18:14.240Z,8.8
2018-06-23T09:19:15.906Z,8.1
2018-06-23T09:20:17.567Z,8.8
2018-06-23T09:21:19.254Z,8.3
2018-06-23T09:22:20.915Z,8.5
2018-06-23T09:23:22.600Z,8.4
2018-06-23T09:24:24.265Z,8.8
2018-06-23T09:25:25.982Z,9.3
2018-06-23T09:26:27.594Z,8.4
2018-06-23T09:27:29.256Z,8.1
2018-06-23T09:28:30.935Z,8.6
2018-06-23T09:29:32.596Z,7.9
2018-06-23T09:30:34.275Z,8.6
2018-06-23T09:31:35.944Z,8.6
2018-06-23T09:32:37.608Z,7.8
2018-06-23T09:33:39.272Z,8.4
2018-06-23T09:34:40.932Z,7.9
2018-06-23T09:35:43.603Z,7.6
2018-06-23T09:36:45.276Z,7.3
2018-06-23T09:37:46.943Z,7.3
2018-06-23T09:38:48.788Z,7.2
2018-06-23T09:39:50.448Z,7.2
2018-06-23T09:40:52.107Z,7.2
2018-06-23T09:41:53.777Z,7.0
2018-06-23T09:42:55.435Z,7.5
2018-06-23T09:43:57.096Z,8.0
2018-06-23T09:44:58.756Z,8.3
2018-06-23T09:46:00.500Z,7.3
2018-06-23T09:47:02.136Z,6.7
2018-06-23T09:48:03.801Z,6.9
2018-06-23T09:49:05.473Z,7.1
2018-06-23T09:50:07.149Z,6.7
2018-06-23T09:51:08.808Z,6.4
2018-06-23T09:52:10.482Z,7.4
2018-06-23T09:53:12.150Z,6.5
2018-06-23T09:54:13.809Z,7.2
2018-06-23T09:55:15.472Z,7.0
2018-06-23T10:01:33.852Z,7.5
2018-06-23T10:02:35.512Z,7.6
2018-06-23T10:04:27.401Z,7.1
2018-06-23T10:05:29.067Z,7.4
2018-06-23T10:07:21.033Z,7.5
2018-06-23T10:08:22.619Z,7.0
2018-06-23T10:10:14.567Z,6.6
2018-06-23T10:11:16.228Z,6.6
2018-06-23T10:12:17.894Z,6.9
2018-06-23T10:13:19.567Z,6.0
2018-06-23T10:14:21.227Z,6.9
2018-06-23T10:15:22.949Z,6.6
2018-06-23T10:16:24.573Z,6.5
2018-06-23T10:17:26.245Z,6.1
2018-06-23T10:18:27.944Z,6.1
2018-06-23T10:19:29.609Z,5.6
2018-06-23T10:20:31.284Z,5.8
2018-06-23T10:21:33.021Z,5.8
2018-06-23T10:22:34.629Z,6.1
2018-06-23T10:23:36.301Z,5.3
2018-06-23T10:24:37.978Z,5.4
2018-06-23T10:25:39.638Z,5.0
2018-06-23T10:26:41.316Z,5.1
2018-06-23T10:27:42.982Z,5.2
2018-06-23T10:28:44.665Z,4.7
2018-06-23T10:29:46.332Z,5.0
2018-06-23T10:30:48.008Z,5.3
2018-06-23T10:31:49.678Z,4.7
2018-06-23T10:32:51.344Z,4.8
2018-06-23T10:33:53.024Z,4.8
2018-06-23T10:34:54.693Z,4.7
2018-06-23T10:35:56.370Z,4.9
2018-06-23T10:36:58.046Z,5.0
2018-06-23T10:37:59.732Z,5.0
2018-06-23T10:39:01.405Z,5.2
2018-06-23T10:40:03.179Z,4.5
2018-06-23T10:41:04.785Z,4.6
2018-06-23T10:42:06.458Z,4.8
2018-06-23T10:43:08.120Z,5.2
2018-06-23T10:44:09.803Z,4.6
2018-06-23T10:45:11.465Z,4.6
2018-06-23T10:46:13.141Z,4.7
2018-06-23T10:47:14.809Z,4.6
2018-06-23T10:48:16.481Z,4.8
2018-06-23T10:49:18.178Z,5.1
2018-06-23T10:50:19.854Z,5.1
2018-06-23T10:51:21.525Z,5.5
2018-06-23T10:52:23.195Z,5.5
2018-06-23T10:53:24.873Z,5.4
2018-06-23T10:54:26.566Z,5.3
2018-06-23T10:55:28.221Z,5.2
2018-06-23T10:56:29.898Z,5.3
2018-06-23T10:57:31.563Z,5.4
2018-06-23T10:58:33.241Z,5.2
2018-06-23T10:59:34.914Z,5.2
2018-06-23T11:00:36.593Z,4.9
2018-06-23T11:01:38.265Z,5.5
2018-06-23T11:02:39.941Z,5.7
2018-06-23T11:03:41.630Z,5.4
2018-06-23T11:04:43.349Z,4.9
2018-06-23T11:05:44.981Z,5.4
2018-06-23T11:06:46.655Z,4.9
2018-06-23T11:07:48.340Z,4.9
2018-06-23T11:08:50.015Z,5.2
2018-06-23T11:09:51.696Z,5.2
2018-06-23T11:10:53.354Z,5.1
2018-06-23T11:11:55.028Z,4.5
2018-06-23T11:12:56.702Z,4.3
2018-06-23T11:13:58.378Z,4.5
2018-06-23T11:15:00.070Z,5.1
2018-06-23T11:16:01.743Z,4.7
2018-06-23T11:17:03.403Z,4.6
2018-06-23T11:18:05.080Z,4.3
2018-06-23T11:19:06.756Z,4.5
2018-06-23T11:20:08.439Z,4.4
2018-06-23T11:21:10.104Z,4.7
2018-06-23T11:22:11.783Z,4.0
2018-06-23T11:23:13.453Z,4.1
2018-06-23T11:24:15.157Z,3.9
2018-06-23T11:25:16.764Z,4.6
2018-06-23T11:26:18.438Z,4.2
2018-06-23T11:27:20.110Z,4.5
2018-06-23T11:28:21.820Z,5.1
2018-06-23T11:29:23.485Z,5.1
2018-06-23T11:30:25.143Z,5.0
2018-06-23T11:31:26.821Z,4.3
2018-06-23T11:32:28.487Z,4.7
2018-06-23T11:33:30.156Z,4.9
2018-06-23T11:34:31.830Z,4.7
2018-06-23T11:35:33.511Z,5.4
2018-06-23T11:36:35.181Z,5.7
2018-06-23T11:37:36.855Z,5.3
2018-06-23T11:38:38.519Z,4.8
2018-06-23T11:39:40.192Z,5.4
2018-06-23T11:40:41.881Z,6.1
2018-06-23T11:41:43.570Z,5.3
2018-06-23T11:42:45.235Z,4.8
2018-06-23T11:43:46.912Z,5.4
2018-06-23T11:44:48.565Z,5.0
2018-06-23T11:45:50.244Z,4.8
2018-06-23T11:46:51.917Z,5.3
2018-06-23T11:47:53.589Z,5.2
2018-06-23T11:48:55.264Z,4.6
2018-06-23T11:49:56.949Z,4.3
2018-06-23T11:50:58.646Z,4.8
2018-06-23T11:52:00.321Z,4.6
2018-06-23T11:53:02.043Z,4.2
2018-06-23T11:54:03.651Z,4.0
2018-06-23T11:55:05.327Z,4.4
2018-06-23T11:56:07.007Z,4.6
2018-06-23T11:57:08.670Z,4.4
2018-06-23T11:58:10.345Z,4.9
2018-06-23T11:59:12.014Z,4.4
2018-06-23T12:00:13.683Z,4.4
2018-06-23T12:01:15.355Z,5.0
2018-06-23T12:02:17.026Z,4.4
2018-06-23T12:03:18.713Z,4.3
2018-06-23T12:04:20.814Z,5.1
2018-06-23T12:05:22.497Z,4.0
2018-06-23T12:06:24.241Z,4.2
2018-06-23T12:07:26.015Z,4.0
2018-06-23T12:08:27.686Z,4.1
2018-06-23T12:09:29.575Z,4.0
2018-06-23T12:10:31.214Z,3.8
2018-06-23T12:11:33.056Z,3.9
2018-06-23T12:12:34.727Z,3.8
2018-06-23T12:13:36.579Z,3.9
2018-06-23T12:14:38.281Z,3.4
2018-06-23T12:15:40.003Z,3.7
2018-06-23T12:16:41.673Z,4.1
2018-06-23T12:17:43.339Z,4.1
2018-06-23T12:18:45.047Z,4.4
2018-06-23T12:19:46.705Z,4.6
2018-06-23T12:20:48.386Z,4.6
2018-06-23T12:21:50.061Z,4.3
2018-06-23T12:22:51.733Z,4.0
2018-06-23T12:23:53.396Z,4.1
2018-06-23T12:24:55.076Z,4.1
2018-06-23T12:25:56.770Z,4.0
2018-06-23T12:26:58.441Z,4.2
2018-06-23T12:28:00.125Z,3.9
2018-06-23T12:29:01.788Z,3.6
2018-06-23T12:30:03.469Z,3.6
2018-06-23T12:31:05.203Z,4.1
2018-06-23T12:32:06.879Z,3.7
2018-06-23T12:33:08.544Z,3.9
2018-06-23T12:34:10.236Z,3.9
2018-06-23T12:35:11.910Z,3.6
2018-06-23T12:36:13.586Z,3.5
2018-06-23T12:37:15.261Z,3.8
2018-06-23T12:38:16.924Z,3.5
2018-06-23T12:39:18.594Z,3.1
2018-06-23T12:40:20.261Z,3.3
2018-06-23T12:41:21.948Z,5.3
2018-06-23T12:42:23.625Z,3.2
2018-06-23T12:43:25.304Z,3.3
2018-06-23T12:44:26.983Z,3.5
2018-06-23T12:45:28.665Z,3.0
2018-06-23T12:46:30.344Z,2.8
2018-06-23T12:47:32.027Z,2.9
2018-06-23T12:48:33.756Z,3.0
2018-06-23T12:49:35.381Z,2.9
2018-06-23T12:50:37.107Z,2.8
2018-06-23T12:51:38.799Z,3.3
2018-06-23T12:52:40.493Z,2.8
2018-06-23T12:53:42.169Z,2.8
2018-06-23T12:54:43.852Z,2.9
2018-06-23T12:55:45.526Z,3.5
2018-06-23T12:56:47.211Z,2.9
2018-06-23T12:57:48.884Z,2.9
2018-06-23T12:58:50.568Z,3.2
2018-06-23T12:59:52.243Z,3.2
2018-06-23T13:00:53.912Z,3.0
2018-06-23T13:01:55.582Z,3.0
2018-06-23T13:02:57.256Z,3.4
2018-06-23T13:03:58.932Z,3.3
2018-06-23T13:05:00.615Z,3.2
2018-06-23T13:06:02.317Z,3.2
2018-06-23T13:07:03.982Z,3.7
2018-06-23T13:08:05.749Z,2.9
2018-06-23T13:09:07.417Z,3.5
2018-06-23T13:10:09.098Z,2.8
2018-06-23T13:11:10.761Z,3.2
2018-06-23T13:12:12.445Z,2.9
2018-06-23T13:13:14.121Z,2.6
2018-06-23T13:14:15.793Z,3.0
2018-06-23T13:15:17.473Z,3.4
2018-06-23T13:16:19.146Z,3.2
2018-06-23T13:17:20.818Z,3.4
2018-06-23T13:18:22.503Z,2.7
2018-06-23T13:19:24.169Z,3.2
2018-06-23T13:20:25.840Z,3.5
2018-06-23T13:21:27.513Z,3.1
2018-06-23T13:22:29.261Z,3.4
2018-06-23T13:23:30.840Z,3.0
2018-06-23T13:24:32.530Z,3.2
2018-06-23T13:25:34.208Z,3.1
2018-06-23T13:26:35.875Z,3.3
2018-06-23T13:27:37.545Z,3.0
2018-06-23T13:28:39.207Z,3.1
2018-06-23T13:29:40.879Z,2.8
2018-06-23T13:30:43.374Z,3.9
2018-06-23T13:31:45.048Z,3.1
2018-06-23T13:32:46.712Z,3.1
2018-06-23T13:33:48.385Z,3.6
2018-06-23T13:34:50.066Z,3.7
2018-06-23T13:35:51.736Z,3.5
2018-06-23T13:36:53.408Z,3.8
2018-06-23T13:37:55.071Z,3.5
2018-06-23T13:38:56.750Z,3.7
2018-06-23T13:39:58.429Z,3.7
2018-06-23T13:41:00.103Z,3.5
2018-06-23T13:42:01.765Z,3.6
2018-06-23T13:43:03.444Z,3.6
2018-06-23T13:44:05.107Z,3.0
2018-06-23T13:45:06.779Z,3.5
2018-06-23T13:46:08.442Z,3.6
2018-06-23T13:47:10.144Z,3.8
2018-06-23T13:48:11.769Z,3.6
2018-06-23T13:49:13.452Z,3.8
2018-06-23T13:50:15.976Z,3.6
2018-06-23T13:51:17.545Z,3.6
2018-06-23T13:52:19.214Z,3.4
2018-06-23T13:53:20.888Z,3.8
2018-06-23T13:54:23.524Z,3.5
2018-06-23T14:01:04.673Z,4.2
2018-06-23T14:02:06.343Z,4.4
2018-06-23T14:03:58.249Z,4.2
2018-06-23T14:04:59.915Z,4.2
2018-06-23T14:06:01.583Z,4.6
2018-06-23T14:07:03.253Z,4.3
2018-06-23T14:08:04.920Z,3.7
2018-06-23T14:09:06.646Z,4.5
2018-06-23T14:10:08.301Z,4.3
2018-06-23T14:11:09.966Z,3.8
2018-06-23T14:12:11.618Z,3.6
2018-06-23T14:13:13.276Z,4.2
2018-06-23T14:14:14.950Z,4.3
2018-06-23T14:15:16.638Z,4.6
2018-06-23T14:16:18.309Z,3.7
2018-06-23T14:17:19.986Z,4.7
2018-06-23T14:18:21.659Z,3.4
2018-06-23T14:19:23.330Z,3.9
2018-06-23T14:20:24.994Z,3.7
2018-06-23T14:21:26.654Z,3.7
2018-06-23T14:22:28.312Z,3.7
2018-06-23T14:23:29.988Z,3.3
2018-06-23T14:24:31.707Z,4.0
2018-06-23T14:25:33.367Z,3.8
2018-06-23T14:26:35.058Z,4.1
2018-06-23T14:27:36.715Z,3.8
2018-06-23T14:28:38.382Z,4.0
2018-06-23T14:29:40.056Z,3.8
2018-06-23T14:30:41.729Z,3.8
2018-06-23T14:31:43.431Z,4.2
2018-06-23T14:32:45.082Z,3.0
2018-06-23T14:33:46.772Z,3.7
2018-06-23T14:34:48.455Z,3.8
2018-06-23T14:35:50.292Z,3.5
2018-06-23T14:36:52.114Z,3.8
2018-06-23T14:37:53.806Z,4.1
2018-06-23T14:38:55.493Z,4.2
2018-06-23T14:39:57.167Z,3.6
2018-06-23T14:40:58.828Z,3.7